Bromley, Kentucky
Current Conditions -  °F | °C
As of 12:17 AM on Wednesday 26 Nov 2014 (Local Time) from KI69 Reporting Station
Clear Clear  
Wind Chill: 34°   Ceiling: Unl
Heat Index: 34°   Visibility: 10mi
Dew Point: 30°   Wind: 0mph
Humidity: 87%   Direction: NA
Pressure: 30.16"   Gusts: NA
Location:  39.0279°N, 84.5635°W
Report Text: KI69 260517Z AUTO 00000KT 10SM CLR 01/M01 A3016 RMK AO1
Loading
Personal Weather Stations






























Interactive Weather Map New forecast layout! Learn more

10-Day Weather Forecast

Advertisements
Track Severe Weather on mobile